GCHIGCGM

Guest
Details From GCHI - Hierro
To GCGM - La Gomera
Flight Number -
Tags generated
Created
Modified
Stats Distance 38 nm / 70 km
Max Altitude 1,400 ft / 427 m
Waypoints 3
Social Downloads 0
Likes 0
Share VATSIM

Download

Looking for another format? Having issues loading an existing format? Contact us
Advertisement - Login to hide

Notes

Basic altitude profile: - Ascent Rate: 2500ft/min - Ascent Speed: 250kts - Cruise Altitude: 35000ft - Cruise Speed: 420kts - Descent Rate: 1500ft/min - Descent Speed: 250kts Options: - Use NATs: yes - Use PACOTS: yes - Use low airways: yes - Use high airways: yes

Route

GCHI GOMER GCGM

ID Type Via Altitude Latitude Longitude Leg Dist Tot Dist Heading (true) Name
O GCHI APT - 0 ft / 0 m 27.81485˚ -17.88705˚ - 0 nm - Hierro
GOMER FIX - 1,400 ft / 427 m 28.00000˚ -17.33333˚ 31 nm 31 nm 69° / 69° -
O GCGM APT - 0 ft / 0 m 28.02963˚ -17.21460˚ 6 nm 37 nm 74° / 74° La Gomera

Altitude Profile

Advertisement - Login to hide

GCHI

Details ICAO GCHI (VDE)
Name Hierro
Region Canary Islands
Timezone Atlantic/Canary (UTC+1.0)
Stats Elevation 337 ft / 103 m (AMSL)
Location 27.814848° -17.887052°
Runways 1
Magnetic Variation 5.568° W

METAR

GCHI 201700Z 35015KT 330V030 9999 FEW025 24/15 Q1018

Decode

TAF

TAF GCHI 201400Z 2015/2115 02012KT 9999 SCT030 TX24/2015Z TN21/2105Z

Decode

Departure Runways

ID Width Length Bearing (true) Bearing (mag) Surface Threshold Offset Overrun Length
16 98 ft / 30 m 4,110 ft / 1,253 m 152.71° 158.28° Asphalt 0 ft / 0 m 112 ft / 34 m
34 98 ft / 30 m 4,110 ft / 1,253 m 332.71° 338.28° Asphalt 0 ft / 0 m 105 ft / 32 m

GCGM

Details ICAO GCGM (GMZ)
Name La Gomera
Region Canary Islands
Timezone Atlantic/Canary (UTC+1.0)
Stats Elevation 715 ft / 218 m (AMSL)
Location 28.029627° -17.214603°
Runways 1
Magnetic Variation 5.299° W

METAR

GCGM 201700Z 24010KT 200V260 9999 FEW030 22/16 Q1018 RMK R09/24007KT 160V280 ARP/24010KT 190V260

Decode

TAF

TAF GCGM 201400Z 2015/2115 23007KT 9999 FEW030 TX23/2015Z TN19/2105Z

Decode

Destination Runways

ID Width Length Bearing (true) Bearing (mag) Surface Threshold Offset Overrun Length
09 98 ft / 30 m 4,914 ft / 1,498 m 81.17° 86.47° Asphalt 0 ft / 0 m 0 ft / 0 m
27 98 ft / 30 m 4,914 ft / 1,498 m 261.18° 266.48° Asphalt 0 ft / 0 m 0 ft / 0 m

Popular Alternatives